NPAS44 EGHQ-EGHQ
Flight info
| Callsign | NPAS44 |
|---|---|
| Flight time | 0h 26m |
| Altitude | 3000 |
| Route | NATIONAL POLICE AIR SERVICE OPERATIONS EGHQ |
| Aircraft | H135/L-SFG/C |
Departure
| Time | 2026-05-05 19:36 |
|---|---|
| Airport | Cornwall Airport Newquay (EGHQ) |
Arrival
| Time | 2026-05-05 20:03 |
|---|---|
| Airport | Cornwall Airport Newquay (EGHQ) |
| Time | Latitude | Longitude | Altitude | Speed | Heading |
|---|---|---|---|---|---|
| 2026-05-05 19:17 | 50.43924 | -4.99774 | 332 ft | 0 kts | 210° |
| 2026-05-05 19:32 | 50.43924 | -4.99775 | 333 ft | 1 kts | 207° |
| 2026-05-05 19:33 | 50.43926 | -4.99772 | 333 ft | 1 kts | 69° |
| 2026-05-05 19:33 | 50.43928 | -4.99749 | 334 ft | 3 kts | 78° |
| 2026-05-05 19:33 | 50.43926 | -4.99707 | 336 ft | 5 kts | 81° |
| 2026-05-05 19:33 | 50.43911 | -4.99632 | 351 ft | 9 kts | 119° |
| 2026-05-05 19:34 | 50.43881 | -4.99554 | 346 ft | 8 kts | 114° |
| 2026-05-05 19:34 | 50.43900 | -4.99517 | 348 ft | 8 kts | 18° |
| 2026-05-05 19:34 | 50.44046 | -4.99533 | 370 ft | 35 kts | 339° |
| 2026-05-05 19:35 | 50.44533 | -5.00758 | 481 ft | 82 kts | 305° |
| 2026-05-05 19:35 | 50.44996 | -5.00998 | 580 ft | 88 kts | 27° |
| 2026-05-05 19:35 | 50.45432 | -5.00257 | 705 ft | 93 kts | 52° |
| 2026-05-05 19:35 | 50.45636 | -4.99277 | 838 ft | 99 kts | 76° |
| 2026-05-05 19:36 | 50.45572 | -4.98163 | 918 ft | 115 kts | 104° |
| 2026-05-05 19:36 | 50.45272 | -4.96946 | 968 ft | 117 kts | 91° |
| 2026-05-05 19:36 | 50.45326 | -4.95712 | 1026 ft | 115 kts | 75° |
| 2026-05-05 19:36 | 50.45404 | -4.94419 | 1018 ft | 122 kts | 72° |
| 2026-05-05 19:37 | 50.45481 | -4.92991 | 864 ft | 136 kts | 83° |
| 2026-05-05 19:37 | 50.45497 | -4.91515 | 827 ft | 137 kts | 82° |
| 2026-05-05 19:37 | 50.45451 | -4.90054 | 1043 ft | 133 kts | 91° |
| 2026-05-05 19:37 | 50.45303 | -4.88636 | 1332 ft | 137 kts | 94° |
| 2026-05-05 19:38 | 50.45116 | -4.87180 | 1659 ft | 140 kts | 95° |
| 2026-05-05 19:38 | 50.44999 | -4.85658 | 1878 ft | 146 kts | 93° |
| 2026-05-05 19:38 | 50.44717 | -4.84088 | 1939 ft | 152 kts | 101° |
| 2026-05-05 19:38 | 50.44451 | -4.82484 | 2007 ft | 157 kts | 103° |
| 2026-05-05 19:39 | 50.43998 | -4.80904 | 1912 ft | 163 kts | 108° |
| 2026-05-05 19:39 | 50.43427 | -4.79295 | 1800 ft | 170 kts | 115° |
| 2026-05-05 19:39 | 50.42824 | -4.77642 | 1584 ft | 174 kts | 107° |
| 2026-05-05 19:39 | 50.42620 | -4.75882 | 1664 ft | 156 kts | 89° |
| 2026-05-05 19:40 | 50.42349 | -4.74242 | 1663 ft | 164 kts | 121° |
| 2026-05-05 19:40 | 50.41296 | -4.73403 | 1447 ft | 177 kts | 171° |
| 2026-05-05 19:40 | 50.40101 | -4.73476 | 1354 ft | 172 kts | 184° |
| 2026-05-05 19:40 | 50.39104 | -4.72792 | 1573 ft | 158 kts | 125° |
| 2026-05-05 19:41 | 50.38608 | -4.71294 | 1736 ft | 152 kts | 114° |
| 2026-05-05 19:41 | 50.37692 | -4.70316 | 1558 ft | 166 kts | 161° |
| 2026-05-05 19:41 | 50.36523 | -4.70076 | 1051 ft | 176 kts | 182° |
| 2026-05-05 19:41 | 50.35401 | -4.70636 | 650 ft | 165 kts | 214° |
| 2026-05-05 19:42 | 50.34748 | -4.71746 | 791 ft | 121 kts | 275° |
| 2026-05-05 19:42 | 50.35224 | -4.72514 | 818 ft | 99 kts | 354° |
| 2026-05-05 19:42 | 50.35833 | -4.71965 | 752 ft | 107 kts | 36° |
| 2026-05-05 19:42 | 50.36112 | -4.70958 | 738 ft | 116 kts | 91° |
| 2026-05-05 19:43 | 50.35664 | -4.70005 | 761 ft | 120 kts | 155° |
| 2026-05-05 19:43 | 50.34887 | -4.70186 | 742 ft | 107 kts | 223° |
| 2026-05-05 19:43 | 50.34861 | -4.70987 | 777 ft | 65 kts | 333° |
| 2026-05-05 19:43 | 50.35093 | -4.71330 | 821 ft | 28 kts | 30° |
| 2026-05-05 19:44 | 50.35111 | -4.71370 | 695 ft | 1 kts | 147° |
| 2026-05-05 19:44 | 50.35107 | -4.71380 | 577 ft | 1 kts | 132° |
| 2026-05-05 19:44 | 50.35106 | -4.71380 | 579 ft | 0 kts | 128° |
| 2026-05-05 19:44 | 50.35107 | -4.71382 | 579 ft | 0 kts | 123° |
| 2026-05-05 19:45 | 50.35106 | -4.71381 | 580 ft | 0 kts | 127° |
| 2026-05-05 19:45 | 50.35107 | -4.71382 | 581 ft | 0 kts | 133° |
| 2026-05-05 19:45 | 50.35106 | -4.71381 | 581 ft | 0 kts | 130° |
| 2026-05-05 19:45 | 50.35117 | -4.71297 | 711 ft | 14 kts | 110° |
| 2026-05-05 19:46 | 50.35175 | -4.71008 | 966 ft | 43 kts | 36° |
| 2026-05-05 19:46 | 50.35496 | -4.70583 | 1021 ft | 80 kts | 27° |
| 2026-05-05 19:46 | 50.35921 | -4.69829 | 1055 ft | 99 kts | 36° |
| 2026-05-05 19:46 | 50.36379 | -4.68850 | 974 ft | 123 kts | 50° |
| 2026-05-05 19:47 | 50.36742 | -4.67531 | 976 ft | 136 kts | 58° |
| 2026-05-05 19:47 | 50.37109 | -4.66163 | 1064 ft | 129 kts | 43° |
| 2026-05-05 19:47 | 50.37883 | -4.66024 | 1278 ft | 122 kts | 331° |
| 2026-05-05 19:47 | 50.38481 | -4.67074 | 1261 ft | 134 kts | 313° |
| 2026-05-05 19:48 | 50.39029 | -4.68289 | 1160 ft | 143 kts | 302° |
| 2026-05-05 19:48 | 50.39396 | -4.69249 | 1117 ft | 104 kts | 294° |
| 2026-05-05 19:48 | 50.39166 | -4.70528 | 1176 ft | 139 kts | 241° |
| 2026-05-05 19:48 | 50.38503 | -4.71733 | 1290 ft | 147 kts | 232° |
| 2026-05-05 19:49 | 50.37819 | -4.73013 | 1254 ft | 158 kts | 234° |
| 2026-05-05 19:49 | 50.37357 | -4.73902 | 1338 ft | 156 kts | 229° |
| 2026-05-05 19:49 | 50.36173 | -4.75083 | 1694 ft | 152 kts | 186° |
| 2026-05-05 19:49 | 50.35159 | -4.74546 | 1669 ft | 166 kts | 149° |
| 2026-05-05 19:50 | 50.34010 | -4.74403 | 1477 ft | 171 kts | 198° |
| 2026-05-05 19:50 | 50.33070 | -4.75409 | 1488 ft | 161 kts | 220° |
| 2026-05-05 19:50 | 50.32005 | -4.75974 | 1341 ft | 170 kts | 175° |
| 2026-05-05 19:50 | 50.30807 | -4.75676 | 923 ft | 179 kts | 162° |
| 2026-05-05 19:51 | 50.29842 | -4.76182 | 779 ft | 144 kts | 255° |
| 2026-05-05 19:51 | 50.30185 | -4.77431 | 996 ft | 125 kts | 323° |
| 2026-05-05 19:51 | 50.31013 | -4.77816 | 1157 ft | 122 kts | 351° |
| 2026-05-05 19:51 | 50.31813 | -4.77372 | 1183 ft | 132 kts | 29° |
| 2026-05-05 19:52 | 50.32430 | -4.76254 | 957 ft | 135 kts | 37° |
| 2026-05-05 19:52 | 50.33125 | -4.75319 | 818 ft | 130 kts | 25° |
| 2026-05-05 19:52 | 50.33927 | -4.74668 | 730 ft | 128 kts | 17° |
| 2026-05-05 19:52 | 50.34394 | -4.73586 | 714 ft | 135 kts | 75° |
| 2026-05-05 19:53 | 50.34317 | -4.72097 | 627 ft | 141 kts | 84° |
| 2026-05-05 19:53 | 50.33724 | -4.71024 | 469 ft | 155 kts | 175° |
| 2026-05-05 19:53 | 50.32869 | -4.71797 | 523 ft | 142 kts | 231° |
| 2026-05-05 19:53 | 50.32366 | -4.73081 | 663 ft | 135 kts | 239° |
| 2026-05-05 19:54 | 50.32025 | -4.74389 | 783 ft | 124 kts | 273° |
| 2026-05-05 19:54 | 50.32514 | -4.75234 | 929 ft | 104 kts | 344° |
| 2026-05-05 19:54 | 50.33233 | -4.74950 | 978 ft | 114 kts | 24° |
| 2026-05-05 19:54 | 50.33850 | -4.74230 | 1125 ft | 116 kts | 32° |
| 2026-05-05 19:55 | 50.34519 | -4.73680 | 1335 ft | 108 kts | 1° |
| 2026-05-05 19:55 | 50.35284 | -4.74024 | 1207 ft | 121 kts | 341° |
| 2026-05-05 19:55 | 50.36118 | -4.74109 | 1121 ft | 122 kts | 18° |
| 2026-05-05 19:55 | 50.36403 | -4.72865 | 959 ft | 142 kts | 95° |
| 2026-05-05 19:56 | 50.35676 | -4.71842 | 990 ft | 147 kts | 163° |
| 2026-05-05 19:56 | 50.34723 | -4.72186 | 1049 ft | 142 kts | 215° |
| 2026-05-05 19:56 | 50.34455 | -4.73438 | 940 ft | 120 kts | 296° |
| 2026-05-05 19:56 | 50.34897 | -4.74405 | 1131 ft | 104 kts | 310° |
| 2026-05-05 19:57 | 50.35282 | -4.75403 | 1190 ft | 111 kts | 299° |
| 2026-05-05 19:57 | 50.35481 | -4.76168 | 1176 ft | 117 kts | 294° |
| 2026-05-05 19:57 | 50.35818 | -4.77793 | 1243 ft | 114 kts | 287° |
| 2026-05-05 19:57 | 50.35937 | -4.78579 | 1307 ft | 110 kts | 286° |
| 2026-05-05 19:58 | 50.36113 | -4.80106 | 1406 ft | 109 kts | 275° |
| 2026-05-05 19:58 | 50.36048 | -4.81310 | 1506 ft | 116 kts | 266° |
| 2026-05-05 19:58 | 50.36056 | -4.82542 | 1542 ft | 110 kts | 296° |
| 2026-05-05 19:58 | 50.36535 | -4.83427 | 1512 ft | 106 kts | 324° |
| 2026-05-05 19:59 | 50.37132 | -4.84108 | 1551 ft | 108 kts | 324° |
| 2026-05-05 19:59 | 50.37764 | -4.84818 | 1575 ft | 113 kts | 326° |
| 2026-05-05 19:59 | 50.38371 | -4.85621 | 1542 ft | 118 kts | 318° |
| 2026-05-05 19:59 | 50.38947 | -4.86534 | 1559 ft | 118 kts | 317° |
| 2026-05-05 20:00 | 50.39516 | -4.87556 | 1411 ft | 128 kts | 310° |
| 2026-05-05 20:00 | 50.40043 | -4.88697 | 1300 ft | 130 kts | 307° |
| 2026-05-05 20:00 | 50.40502 | -4.89922 | 1208 ft | 129 kts | 303° |
| 2026-05-05 20:00 | 50.40943 | -4.91119 | 1081 ft | 129 kts | 302° |
| 2026-05-05 20:01 | 50.41387 | -4.92344 | 952 ft | 120 kts | 301° |
| 2026-05-05 20:01 | 50.41767 | -4.93429 | 902 ft | 107 kts | 303° |
| 2026-05-05 20:01 | 50.42140 | -4.94409 | 801 ft | 102 kts | 306° |
| 2026-05-05 20:01 | 50.42505 | -4.95324 | 747 ft | 96 kts | 306° |
| 2026-05-05 20:02 | 50.42844 | -4.96232 | 665 ft | 103 kts | 300° |
| 2026-05-05 20:02 | 50.43187 | -4.97165 | 600 ft | 92 kts | 301° |
| 2026-05-05 20:02 | 50.43486 | -4.97953 | 471 ft | 74 kts | 299° |
| 2026-05-05 20:02 | 50.43708 | -4.98536 | 397 ft | 52 kts | 296° |
| 2026-05-05 20:03 | 50.43858 | -4.98950 | 371 ft | 36 kts | 292° |
| 2026-05-05 20:03 | 50.43929 | -4.99149 | 362 ft | 13 kts | 290° |
| 2026-05-05 20:03 | 50.43968 | -4.99285 | 372 ft | 28 kts | 294° |
| 2026-05-05 20:03 | 50.43894 | -4.99495 | 346 ft | 8 kts | 209° |
| 2026-05-05 20:04 | 50.43896 | -4.99563 | 361 ft | 14 kts | 304° |
| 2026-05-05 20:04 | 50.43933 | -4.99668 | 360 ft | 15 kts | 306° |
| 2026-05-05 20:04 | 50.43935 | -4.99741 | 342 ft | 4 kts | 295° |
| 2026-05-05 20:04 | 50.43925 | -4.99770 | 336 ft | 3 kts | 258° |
| 2026-05-05 20:05 | 50.43924 | -4.99780 | 331 ft | 0 kts | 251° |